TRA5793 EHAM-LGPZ
Flight info
| Callsign | TRA5793 |
|---|---|
| Flight time | N/A |
| Altitude | 37000 |
| Route | EDUPO Z739 MISGO DCT DOJOH DCT DODEN DCT NEGIX DCT DINKU M867 XERUM DCT BAVAX DCT RADIZ DCT VILAK DCT DOL DCT NIVES DCT NAVSU DCT TAZ DCT RODON DCT LIMJA DCT PITAS N732 KRK M127 MALED |
| Aircraft | A21N/M-SBDE2E3FGHIJ1J5M1P2RWXYZ/LB1D1G1 |
Departure
| Time | 2026-05-07 14:53 |
|---|---|
| Airport | Amsterdam Airport Schiphol (EHAM) |
Arrival
| Time | N/A |
|---|---|
| Airport | Aktion National Airport (LGPZ) |
| Time | Latitude | Longitude | Altitude | Speed | Heading |
|---|---|---|---|---|---|
| 2026-05-07 13:49 | 52.30458 | 4.76714 | 4 ft | 0 kts | 334° |
| 2026-05-07 14:35 | 52.30438 | 4.76727 | 4 ft | 4 kts | 342° |
| 2026-05-07 14:35 | 52.30417 | 4.76741 | 4 ft | 4 kts | 324° |
| 2026-05-07 14:35 | 52.30404 | 4.76771 | 4 ft | 4 kts | 271° |
| 2026-05-07 14:36 | 52.30409 | 4.76810 | 4 ft | 3 kts | 247° |
| 2026-05-07 14:36 | 52.30410 | 4.76813 | 4 ft | 0 kts | 247° |
| 2026-05-07 14:39 | 52.30405 | 4.76798 | 4 ft | 3 kts | 234° |
| 2026-05-07 14:40 | 52.30367 | 4.76707 | 4 ft | 15 kts | 237° |
| 2026-05-07 14:40 | 52.30306 | 4.76552 | 4 ft | 17 kts | 238° |
| 2026-05-07 14:40 | 52.30242 | 4.76383 | 4 ft | 18 kts | 238° |
| 2026-05-07 14:40 | 52.30171 | 4.76198 | 4 ft | 20 kts | 238° |
| 2026-05-07 14:41 | 52.30094 | 4.75997 | 4 ft | 22 kts | 238° |
| 2026-05-07 14:41 | 52.30016 | 4.75794 | 4 ft | 21 kts | 237° |
| 2026-05-07 14:41 | 52.29937 | 4.75588 | 4 ft | 20 kts | 238° |
| 2026-05-07 14:41 | 52.29869 | 4.75411 | 4 ft | 17 kts | 238° |
| 2026-05-07 14:42 | 52.29835 | 4.75224 | 4 ft | 19 kts | 292° |
| 2026-05-07 14:42 | 52.29919 | 4.75052 | 4 ft | 20 kts | 311° |
| 2026-05-07 14:42 | 52.30015 | 4.74872 | 4 ft | 22 kts | 311° |
| 2026-05-07 14:42 | 52.30121 | 4.74677 | 13 ft | 24 kts | 311° |
| 2026-05-07 14:43 | 52.30228 | 4.74480 | 15 ft | 24 kts | 311° |
| 2026-05-07 14:43 | 52.30311 | 4.74323 | 9 ft | 13 kts | 310° |
| 2026-05-07 14:43 | 52.30371 | 4.74216 | 5 ft | 14 kts | 325° |
| 2026-05-07 14:43 | 52.30468 | 4.74199 | 4 ft | 14 kts | 4° |
| 2026-05-07 14:44 | 52.30572 | 4.74209 | 4 ft | 16 kts | 2° |
| 2026-05-07 14:44 | 52.30690 | 4.74217 | 4 ft | 18 kts | 2° |
| 2026-05-07 14:44 | 52.30819 | 4.74228 | 4 ft | 19 kts | 4° |
| 2026-05-07 14:44 | 52.30960 | 4.74244 | 4 ft | 20 kts | 4° |
| 2026-05-07 14:45 | 52.31097 | 4.74256 | 4 ft | 20 kts | 2° |
| 2026-05-07 14:45 | 52.31244 | 4.74269 | 4 ft | 22 kts | 4° |
| 2026-05-07 14:45 | 52.31366 | 4.74288 | 5 ft | 16 kts | 31° |
| 2026-05-07 14:45 | 52.31393 | 4.74439 | 4 ft | 7 kts | 87° |
| 2026-05-07 14:46 | 52.31396 | 4.74533 | 4 ft | 9 kts | 86° |
| 2026-05-07 14:46 | 52.31397 | 4.74559 | 4 ft | 0 kts | 85° |
| 2026-05-07 14:47 | 52.31398 | 4.74576 | 4 ft | 3 kts | 85° |
| 2026-05-07 14:48 | 52.31402 | 4.74625 | 4 ft | 6 kts | 72° |
| 2026-05-07 14:48 | 52.31437 | 4.74670 | 5 ft | 8 kts | 11° |
| 2026-05-07 14:48 | 52.31500 | 4.74668 | 5 ft | 10 kts | 357° |
| 2026-05-07 14:48 | 52.31559 | 4.74663 | 5 ft | 4 kts | 357° |
| 2026-05-07 14:49 | 52.31561 | 4.74663 | 5 ft | 0 kts | 357° |
| 2026-05-07 14:50 | 52.31563 | 4.74662 | 5 ft | 1 kts | 357° |
| 2026-05-07 14:50 | 52.31580 | 4.74661 | 5 ft | 4 kts | 357° |
| 2026-05-07 14:50 | 52.31621 | 4.74668 | 5 ft | 7 kts | 12° |
| 2026-05-07 14:50 | 52.31664 | 4.74729 | 5 ft | 10 kts | 75° |
| 2026-05-07 14:51 | 52.31668 | 4.74777 | 5 ft | 0 kts | 86° |
| 2026-05-07 14:52 | 52.31668 | 4.74788 | 5 ft | 9 kts | 86° |
| 2026-05-07 14:53 | 52.31687 | 4.75330 | 2 ft | 85 kts | 86° |
| 2026-05-07 14:53 | 52.31732 | 4.76642 | 4 ft | 145 kts | 86° |
| 2026-05-07 14:53 | 52.31786 | 4.78519 | 188 ft | 173 kts | 85° |
| 2026-05-07 14:53 | 52.31826 | 4.80310 | 868 ft | 170 kts | 84° |
| 2026-05-07 14:54 | 52.31899 | 4.82273 | 1473 ft | 179 kts | 84° |
| 2026-05-07 14:54 | 52.31978 | 4.84403 | 1966 ft | 201 kts | 85° |
| 2026-05-07 14:54 | 52.31939 | 4.86878 | 2424 ft | 234 kts | 99° |
| 2026-05-07 14:54 | 52.31410 | 4.89410 | 3136 ft | 251 kts | 112° |
| 2026-05-07 14:55 | 52.30691 | 4.92059 | 4127 ft | 258 kts | 113° |
| 2026-05-07 14:55 | 52.30059 | 4.94385 | 4966 ft | 263 kts | 114° |
| 2026-05-07 14:55 | 52.29395 | 4.97132 | 5603 ft | 265 kts | 108° |
| 2026-05-07 14:55 | 52.28870 | 5.00019 | 5916 ft | 266 kts | 106° |
| 2026-05-07 14:56 | 52.28366 | 5.02931 | 6179 ft | 266 kts | 106° |
| 2026-05-07 14:56 | 52.27857 | 5.05867 | 7069 ft | 270 kts | 107° |
| 2026-05-07 14:56 | 52.27340 | 5.08846 | 8026 ft | 275 kts | 107° |
| 2026-05-07 14:56 | 52.26812 | 5.11871 | 9000 ft | 280 kts | 107° |
| 2026-05-07 14:57 | 52.26273 | 5.14963 | 9941 ft | 286 kts | 107° |
| 2026-05-07 14:57 | 52.25714 | 5.18154 | 10612 ft | 302 kts | 107° |
| 2026-05-07 14:57 | 52.25112 | 5.21574 | 11043 ft | 324 kts | 107° |
| 2026-05-07 14:57 | 52.24415 | 5.25167 | 11672 ft | 337 kts | 114° |
| 2026-05-07 14:58 | 52.23244 | 5.28483 | 12561 ft | 340 kts | 125° |
| 2026-05-07 14:58 | 52.21871 | 5.31642 | 13496 ft | 343 kts | 126° |
| 2026-05-07 14:58 | 52.20945 | 5.33736 | 14073 ft | 346 kts | 126° |
| 2026-05-07 14:58 | 52.19526 | 5.36959 | 14846 ft | 350 kts | 126° |
| 2026-05-07 14:59 | 52.18100 | 5.40212 | 15629 ft | 355 kts | 126° |
| 2026-05-07 14:59 | 52.16658 | 5.43508 | 16391 ft | 360 kts | 126° |
| 2026-05-07 14:59 | 52.15197 | 5.46851 | 17153 ft | 364 kts | 126° |
| 2026-05-07 14:59 | 52.13721 | 5.50226 | 17931 ft | 368 kts | 126° |
| 2026-05-07 15:00 | 52.12227 | 5.53644 | 18649 ft | 372 kts | 126° |
| 2026-05-07 15:00 | 52.10719 | 5.57100 | 19302 ft | 376 kts | 126° |
| 2026-05-07 15:00 | 52.09197 | 5.60580 | 19954 ft | 380 kts | 126° |
| 2026-05-07 15:00 | 52.07673 | 5.64050 | 20533 ft | 383 kts | 126° |
| 2026-05-07 15:01 | 52.06093 | 5.67560 | 21123 ft | 387 kts | 129° |
| 2026-05-07 15:01 | 52.04349 | 5.70912 | 21721 ft | 390 kts | 132° |
| 2026-05-07 15:01 | 52.02532 | 5.74297 | 22379 ft | 394 kts | 132° |
| 2026-05-07 15:01 | 52.00722 | 5.77659 | 23015 ft | 397 kts | 132° |
| 2026-05-07 15:02 | 51.98896 | 5.81057 | 23641 ft | 401 kts | 132° |
| 2026-05-07 15:02 | 51.97058 | 5.84477 | 24168 ft | 404 kts | 132° |
| 2026-05-07 15:02 | 51.95232 | 5.87884 | 24683 ft | 407 kts | 132° |
| 2026-05-07 15:02 | 51.93368 | 5.91365 | 25220 ft | 410 kts | 133° |
| 2026-05-07 15:03 | 51.91493 | 5.94865 | 25734 ft | 413 kts | 133° |
| 2026-05-07 15:03 | 51.89606 | 5.98374 | 26228 ft | 416 kts | 133° |
| 2026-05-07 15:03 | 51.87705 | 6.01907 | 26713 ft | 419 kts | 133° |
| 2026-05-07 15:03 | 51.85782 | 6.05476 | 27187 ft | 422 kts | 133° |
| 2026-05-07 15:04 | 51.83837 | 6.09072 | 27664 ft | 425 kts | 133° |
| 2026-05-07 15:04 | 51.81906 | 6.12623 | 28129 ft | 428 kts | 133° |
| 2026-05-07 15:04 | 51.79923 | 6.16260 | 28592 ft | 431 kts | 133° |
| 2026-05-07 15:04 | 51.77934 | 6.19898 | 29050 ft | 434 kts | 133° |
| 2026-05-07 15:05 | 51.75931 | 6.23565 | 29467 ft | 436 kts | 133° |
| 2026-05-07 15:05 | 51.73918 | 6.27240 | 29867 ft | 438 kts | 133° |
| 2026-05-07 15:05 | 51.71886 | 6.30938 | 30236 ft | 441 kts | 133° |
| 2026-05-07 15:05 | 51.69846 | 6.34644 | 30558 ft | 444 kts | 133° |
| 2026-05-07 15:06 | 51.67788 | 6.38376 | 30896 ft | 446 kts | 133° |
| 2026-05-07 15:06 | 51.65721 | 6.42128 | 31215 ft | 449 kts | 133° |
| 2026-05-07 15:06 | 51.63643 | 6.45898 | 31531 ft | 451 kts | 133° |
| 2026-05-07 15:06 | 51.61555 | 6.49672 | 31859 ft | 453 kts | 132° |
| 2026-05-07 15:07 | 51.59457 | 6.53473 | 32230 ft | 453 kts | 133° |
| 2026-05-07 15:07 | 51.57369 | 6.57250 | 32611 ft | 453 kts | 133° |
| 2026-05-07 15:07 | 51.55270 | 6.61034 | 32997 ft | 452 kts | 133° |
| 2026-05-07 15:07 | 51.53172 | 6.64805 | 33383 ft | 452 kts | 133° |
| 2026-05-07 15:08 | 51.51106 | 6.68510 | 33753 ft | 452 kts | 133° |
| 2026-05-07 15:08 | 51.49005 | 6.72276 | 34106 ft | 451 kts | 133° |
| 2026-05-07 15:08 | 51.46928 | 6.76001 | 34390 ft | 451 kts | 133° |
| 2026-05-07 15:08 | 51.44838 | 6.79744 | 34677 ft | 451 kts | 133° |
| 2026-05-07 15:09 | 51.42736 | 6.83501 | 34967 ft | 451 kts | 133° |
| 2026-05-07 15:09 | 51.40637 | 6.87218 | 35231 ft | 450 kts | 135° |
| 2026-05-07 15:09 | 51.38424 | 6.90749 | 35479 ft | 450 kts | 137° |
| 2026-05-07 15:09 | 51.36179 | 6.94244 | 35735 ft | 450 kts | 137° |
| 2026-05-07 15:10 | 51.33972 | 6.97670 | 35969 ft | 450 kts | 137° |
| 2026-05-07 15:10 | 51.31724 | 7.01149 | 36211 ft | 450 kts | 137° |
| 2026-05-07 15:10 | 51.29471 | 7.04633 | 36502 ft | 450 kts | 137° |
| 2026-05-07 15:10 | 51.27220 | 7.08108 | 36793 ft | 450 kts | 137° |
| 2026-05-07 15:11 | 51.24970 | 7.11585 | 37043 ft | 451 kts | 137° |
| 2026-05-07 15:11 | 51.22726 | 7.15045 | 37087 ft | 449 kts | 137° |
| 2026-05-07 15:11 | 51.18222 | 7.21965 | 37058 ft | 449 kts | 137° |
| 2026-05-07 15:12 | 51.13720 | 7.28874 | 37063 ft | 449 kts | 137° |
| 2026-05-07 15:12 | 51.09216 | 7.35780 | 37050 ft | 449 kts | 137° |
| 2026-05-07 15:13 | 51.04711 | 7.42658 | 37046 ft | 449 kts | 137° |
| 2026-05-07 15:13 | 51.00186 | 7.49532 | 37057 ft | 449 kts | 137° |
| 2026-05-07 15:14 | 50.95669 | 7.56384 | 37044 ft | 449 kts | 137° |
| 2026-05-07 15:14 | 50.91178 | 7.63183 | 37041 ft | 450 kts | 137° |
| 2026-05-07 15:15 | 50.86642 | 7.70029 | 37044 ft | 450 kts | 137° |
| 2026-05-07 15:15 | 50.82138 | 7.76790 | 37034 ft | 450 kts | 138° |
| 2026-05-07 15:16 | 50.77580 | 7.83568 | 37029 ft | 450 kts | 138° |
| 2026-05-07 15:16 | 50.73032 | 7.90334 | 37024 ft | 450 kts | 138° |
| 2026-05-07 15:17 | 50.68591 | 7.96925 | 37016 ft | 450 kts | 138° |
| 2026-05-07 15:17 | 50.64028 | 8.03674 | 37019 ft | 450 kts | 138° |
| 2026-05-07 15:18 | 50.59563 | 8.10579 | 37043 ft | 451 kts | 131° |
| 2026-05-07 15:18 | 50.55650 | 8.18238 | 37057 ft | 452 kts | 129° |
| 2026-05-07 15:19 | 50.51739 | 8.25976 | 37058 ft | 452 kts | 130° |
| 2026-05-07 15:19 | 50.47812 | 8.33666 | 37057 ft | 451 kts | 130° |
| 2026-05-07 15:20 | 50.43878 | 8.41367 | 37055 ft | 452 kts | 130° |
| 2026-05-07 15:20 | 50.39927 | 8.49055 | 37056 ft | 452 kts | 130° |
| 2026-05-07 15:21 | 50.35831 | 8.56511 | 37059 ft | 451 kts | 134° |
| 2026-05-07 15:21 | 50.31549 | 8.63684 | 37052 ft | 451 kts | 134° |
| 2026-05-07 15:22 | 50.27559 | 8.70342 | 37054 ft | 452 kts | 134° |
| 2026-05-07 15:22 | 50.23261 | 8.77513 | 37054 ft | 452 kts | 134° |
| 2026-05-07 15:23 | 50.18963 | 8.84665 | 37053 ft | 452 kts | 134° |
| 2026-05-07 15:23 | 50.14655 | 8.91810 | 37056 ft | 452 kts | 134° |
| 2026-05-07 15:24 | 50.10518 | 8.98660 | 37056 ft | 452 kts | 135° |
| 2026-05-07 15:24 | 50.06198 | 9.05774 | 37048 ft | 452 kts | 135° |
| 2026-05-07 15:25 | 50.01906 | 9.12831 | 37056 ft | 452 kts | 135° |
| 2026-05-07 15:25 | 49.99737 | 9.16400 | 36162 ft | 453 kts | 134° |
| 2026-05-07 15:25 | 49.97576 | 9.19941 | 36617 ft | 450 kts | 134° |
| 2026-05-07 15:26 | 49.95418 | 9.23468 | 36874 ft | 453 kts | 134° |
| 2026-05-07 15:26 | 49.93231 | 9.27041 | 36977 ft | 459 kts | 134° |
| 2026-05-07 15:26 | 49.88754 | 9.34349 | 37022 ft | 475 kts | 134° |
| 2026-05-07 15:27 | 49.84134 | 9.41873 | 37039 ft | 489 kts | 134° |
| 2026-05-07 15:27 | 49.79386 | 9.49570 | 37022 ft | 498 kts | 134° |
| 2026-05-07 15:28 | 49.74617 | 9.57271 | 37009 ft | 498 kts | 134° |
| 2026-05-07 15:28 | 49.69831 | 9.64990 | 37001 ft | 498 kts | 134° |
| 2026-05-07 15:29 | 49.65107 | 9.72569 | 37002 ft | 498 kts | 134° |
| 2026-05-07 15:29 | 49.60309 | 9.80259 | 37002 ft | 498 kts | 134° |
| 2026-05-07 15:30 | 49.55490 | 9.87957 | 37001 ft | 498 kts | 134° |
| 2026-05-07 15:30 | 49.50752 | 9.95502 | 37000 ft | 498 kts | 134° |
| 2026-05-07 15:31 | 49.45921 | 10.03152 | 37001 ft | 498 kts | 135° |
| 2026-05-07 15:31 | 49.41080 | 10.10804 | 37001 ft | 499 kts | 134° |
| 2026-05-07 15:32 | 49.36236 | 10.18451 | 37000 ft | 499 kts | 134° |
| 2026-05-07 15:32 | 49.31391 | 10.26080 | 37002 ft | 499 kts | 134° |
| 2026-05-07 15:33 | 49.26561 | 10.33640 | 37001 ft | 499 kts | 135° |
| 2026-05-07 15:33 | 49.21269 | 10.40469 | 37001 ft | 498 kts | 148° |
| 2026-05-07 15:34 | 49.15313 | 10.45898 | 37006 ft | 498 kts | 150° |
| 2026-05-07 15:34 | 49.09346 | 10.51291 | 37004 ft | 498 kts | 149° |
| 2026-05-07 15:35 | 49.03390 | 10.56686 | 37003 ft | 498 kts | 149° |
| 2026-05-07 15:35 | 48.97424 | 10.62081 | 37003 ft | 499 kts | 149° |
| 2026-05-07 15:36 | 48.91477 | 10.67449 | 36998 ft | 494 kts | 149° |
| 2026-05-07 15:36 | 48.85569 | 10.72758 | 37001 ft | 494 kts | 149° |
| 2026-05-07 15:37 | 48.79946 | 10.78731 | 37001 ft | 495 kts | 137° |
| 2026-05-07 15:37 | 48.75274 | 10.86404 | 37003 ft | 495 kts | 131° |
| 2026-05-07 15:38 | 48.70711 | 10.94205 | 37002 ft | 495 kts | 132° |
| 2026-05-07 15:38 | 48.66871 | 11.00634 | 37002 ft | 495 kts | 132° |
| 2026-05-07 15:39 | 48.61471 | 11.09629 | 37004 ft | 494 kts | 133° |
| 2026-05-07 15:39 | 48.56869 | 11.17263 | 37005 ft | 494 kts | 133° |
| 2026-05-07 15:40 | 48.52243 | 11.24934 | 37010 ft | 493 kts | 133° |
| 2026-05-07 15:40 | 48.47619 | 11.32575 | 37018 ft | 492 kts | 133° |
| 2026-05-07 15:41 | 48.43748 | 11.38947 | 37013 ft | 492 kts | 133° |
| 2026-05-07 15:41 | 48.38375 | 11.47773 | 37012 ft | 492 kts | 133° |
| 2026-05-07 15:42 | 48.34523 | 11.54062 | 37014 ft | 491 kts | 133° |
| 2026-05-07 15:42 | 48.29907 | 11.61612 | 37026 ft | 490 kts | 133° |
| 2026-05-07 15:43 | 48.25214 | 11.69057 | 37010 ft | 490 kts | 137° |
| 2026-05-07 15:43 | 48.20190 | 11.75972 | 37011 ft | 489 kts | 138° |
| 2026-05-07 15:44 | 48.15157 | 11.82827 | 37001 ft | 489 kts | 138° |
| 2026-05-07 15:44 | 48.10150 | 11.89688 | 37007 ft | 490 kts | 138° |
| 2026-05-07 15:45 | 48.05123 | 11.96557 | 37017 ft | 495 kts | 138° |
| 2026-05-07 15:45 | 48.00039 | 12.03472 | 37011 ft | 494 kts | 138° |
| 2026-05-07 15:46 | 47.92403 | 12.13828 | 37004 ft | 494 kts | 138° |
| 2026-05-07 15:47 | 47.87313 | 12.20714 | 37003 ft | 494 kts | 138° |
| 2026-05-07 15:47 | 47.82226 | 12.27584 | 37004 ft | 494 kts | 138° |
| 2026-05-07 15:48 | 47.77112 | 12.34464 | 37007 ft | 494 kts | 138° |
| 2026-05-07 15:48 | 47.72022 | 12.41290 | 37005 ft | 494 kts | 138° |
| 2026-05-07 15:49 | 47.66913 | 12.48129 | 37002 ft | 494 kts | 138° |
| 2026-05-07 15:49 | 47.61848 | 12.55040 | 37001 ft | 494 kts | 135° |
| 2026-05-07 15:50 | 47.57028 | 12.62329 | 37001 ft | 496 kts | 134° |
| 2026-05-07 15:50 | 47.52248 | 12.69569 | 37003 ft | 496 kts | 135° |
| 2026-05-07 15:51 | 47.47413 | 12.76859 | 37001 ft | 496 kts | 135° |
| 2026-05-07 15:51 | 47.42572 | 12.84124 | 37001 ft | 496 kts | 135° |
| 2026-05-07 15:52 | 47.37723 | 12.91373 | 37001 ft | 497 kts | 135° |
| 2026-05-07 15:52 | 47.32882 | 12.98621 | 37003 ft | 497 kts | 135° |
| 2026-05-07 15:53 | 47.28023 | 13.05902 | 36999 ft | 497 kts | 135° |
| 2026-05-07 15:53 | 47.23149 | 13.13153 | 37001 ft | 498 kts | 135° |
| 2026-05-07 15:54 | 47.18275 | 13.20377 | 37001 ft | 498 kts | 135° |
| 2026-05-07 15:54 | 47.13453 | 13.27513 | 36998 ft | 493 kts | 135° |
| 2026-05-07 15:55 | 47.08609 | 13.34661 | 37003 ft | 493 kts | 135° |
| 2026-05-07 15:55 | 47.03769 | 13.41783 | 37000 ft | 493 kts | 135° |
| 2026-05-07 15:56 | 46.98909 | 13.48911 | 37000 ft | 493 kts | 135° |
| 2026-05-07 15:56 | 46.94048 | 13.56011 | 37001 ft | 493 kts | 135° |
| 2026-05-07 15:57 | 46.89226 | 13.63056 | 37001 ft | 492 kts | 135° |
| 2026-05-07 15:57 | 46.84376 | 13.70119 | 37003 ft | 492 kts | 135° |
| 2026-05-07 15:58 | 46.79527 | 13.77157 | 37001 ft | 492 kts | 135° |
| 2026-05-07 15:58 | 46.74662 | 13.84201 | 37000 ft | 496 kts | 135° |
| 2026-05-07 15:59 | 46.69724 | 13.91324 | 37004 ft | 498 kts | 135° |
| 2026-05-07 15:59 | 46.64787 | 13.98409 | 37001 ft | 498 kts | 136° |
| 2026-05-07 16:00 | 46.59858 | 14.05446 | 37001 ft | 497 kts | 136° |
| 2026-05-07 16:00 | 46.54918 | 14.12485 | 37002 ft | 497 kts | 136° |
| 2026-05-07 16:01 | 46.49986 | 14.19496 | 37000 ft | 496 kts | 136° |
| 2026-05-07 16:01 | 46.45057 | 14.26482 | 37001 ft | 495 kts | 136° |
| 2026-05-07 16:02 | 46.40133 | 14.33442 | 37002 ft | 495 kts | 136° |
| 2026-05-07 16:02 | 46.35195 | 14.40405 | 37002 ft | 495 kts | 136° |
| 2026-05-07 16:03 | 46.30286 | 14.47312 | 37002 ft | 495 kts | 136° |
| 2026-05-07 16:03 | 46.25436 | 14.54109 | 37003 ft | 496 kts | 136° |
| 2026-05-07 16:04 | 46.20479 | 14.61043 | 37001 ft | 495 kts | 136° |
| 2026-05-07 16:04 | 46.15519 | 14.67958 | 37001 ft | 495 kts | 136° |
| 2026-05-07 16:05 | 46.10562 | 14.74861 | 37001 ft | 496 kts | 136° |
| 2026-05-07 16:05 | 46.05568 | 14.81691 | 37002 ft | 495 kts | 137° |
| 2026-05-07 16:06 | 46.00512 | 14.88432 | 37002 ft | 495 kts | 137° |
| 2026-05-07 16:06 | 45.95457 | 14.95169 | 37002 ft | 496 kts | 137° |
| 2026-05-07 16:07 | 45.90424 | 15.01860 | 37002 ft | 496 kts | 137° |
| 2026-05-07 16:07 | 45.85364 | 15.08582 | 37001 ft | 496 kts | 137° |
| 2026-05-07 16:08 | 45.80292 | 15.15295 | 37002 ft | 496 kts | 137° |
| 2026-05-07 16:08 | 45.75202 | 15.22015 | 37001 ft | 496 kts | 137° |
| 2026-05-07 16:09 | 45.70116 | 15.28709 | 37000 ft | 497 kts | 137° |
| 2026-05-07 16:09 | 45.65023 | 15.35401 | 37001 ft | 497 kts | 137° |
| 2026-05-07 16:10 | 45.59924 | 15.42079 | 37002 ft | 497 kts | 137° |
| 2026-05-07 16:10 | 45.54821 | 15.48747 | 37002 ft | 497 kts | 138° |
| 2026-05-07 16:11 | 45.49737 | 15.55369 | 37001 ft | 498 kts | 138° |
| 2026-05-07 16:11 | 45.44631 | 15.62010 | 37000 ft | 496 kts | 138° |
| 2026-05-07 16:12 | 45.39542 | 15.68594 | 37001 ft | 493 kts | 138° |
| 2026-05-07 16:12 | 45.34479 | 15.75159 | 37002 ft | 493 kts | 138° |
| 2026-05-07 16:13 | 45.29403 | 15.81717 | 37001 ft | 493 kts | 138° |
| 2026-05-07 16:13 | 45.24310 | 15.88262 | 37000 ft | 493 kts | 138° |
| 2026-05-07 16:14 | 45.19471 | 15.95081 | 37003 ft | 493 kts | 134° |
| 2026-05-07 16:14 | 45.14753 | 16.02139 | 37002 ft | 493 kts | 134° |
| 2026-05-07 16:15 | 45.10037 | 16.09173 | 37002 ft | 493 kts | 134° |
| 2026-05-07 16:15 | 45.05306 | 16.16206 | 37001 ft | 493 kts | 134° |
| 2026-05-07 16:16 | 45.00574 | 16.23224 | 37001 ft | 493 kts | 134° |
| 2026-05-07 16:16 | 44.95832 | 16.30233 | 37001 ft | 493 kts | 134° |
| 2026-05-07 16:17 | 44.91089 | 16.37226 | 37001 ft | 493 kts | 134° |
| 2026-05-07 16:17 | 44.86343 | 16.44213 | 37001 ft | 493 kts | 134° |
| 2026-05-07 16:18 | 44.81591 | 16.51189 | 37001 ft | 494 kts | 134° |
| 2026-05-07 16:18 | 44.76959 | 16.57967 | 37001 ft | 494 kts | 134° |
| 2026-05-07 16:19 | 44.72121 | 16.65034 | 37002 ft | 494 kts | 134° |
| 2026-05-07 16:19 | 44.67339 | 16.71991 | 37002 ft | 494 kts | 134° |
| 2026-05-07 16:20 | 44.62556 | 16.78911 | 37003 ft | 494 kts | 134° |
| 2026-05-07 16:20 | 44.57813 | 16.85819 | 37003 ft | 495 kts | 134° |
| 2026-05-07 16:21 | 44.52635 | 16.92119 | 37002 ft | 494 kts | 147° |
| 2026-05-07 16:21 | 44.46801 | 16.97221 | 37003 ft | 494 kts | 149° |
| 2026-05-07 16:22 | 44.40939 | 17.02256 | 37001 ft | 494 kts | 148° |
| 2026-05-07 16:22 | 44.35094 | 17.07338 | 37001 ft | 495 kts | 148° |
| 2026-05-07 16:23 | 44.29250 | 17.12432 | 37001 ft | 495 kts | 148° |
| 2026-05-07 16:23 | 44.23402 | 17.17501 | 36999 ft | 492 kts | 148° |
| 2026-05-07 16:24 | 44.17600 | 17.22514 | 37000 ft | 490 kts | 148° |
| 2026-05-07 16:24 | 44.11836 | 17.27482 | 37002 ft | 490 kts | 148° |
| 2026-05-07 16:25 | 44.06045 | 17.32463 | 37358 ft | 486 kts | 151° |
| 2026-05-07 16:25 | 44.03243 | 17.34925 | 37311 ft | 467 kts | 154° |
| 2026-05-07 16:25 | 44.00518 | 17.37258 | 37180 ft | 452 kts | 155° |
| 2026-05-07 16:25 | 43.97878 | 17.39501 | 37095 ft | 439 kts | 155° |
| 2026-05-07 16:26 | 43.95256 | 17.41726 | 37074 ft | 441 kts | 155° |
| 2026-05-07 16:26 | 43.90893 | 17.45438 | 37072 ft | 443 kts | 154° |
| 2026-05-07 16:27 | 43.84755 | 17.50669 | 37074 ft | 443 kts | 154° |
| 2026-05-07 16:27 | 43.80387 | 17.54387 | 37060 ft | 444 kts | 155° |
| 2026-05-07 16:28 | 43.74262 | 17.59594 | 37068 ft | 446 kts | 155° |
| 2026-05-07 16:28 | 43.68975 | 17.64080 | 37084 ft | 445 kts | 155° |
| 2026-05-07 16:29 | 43.64542 | 17.67826 | 37079 ft | 445 kts | 155° |
| 2026-05-07 16:29 | 43.59295 | 17.72263 | 37064 ft | 446 kts | 155° |
| 2026-05-07 16:30 | 43.53965 | 17.76743 | 37065 ft | 446 kts | 155° |
| 2026-05-07 16:30 | 43.48688 | 17.81175 | 37077 ft | 446 kts | 155° |
| 2026-05-07 16:31 | 43.43390 | 17.85613 | 37084 ft | 446 kts | 155° |
| 2026-05-07 16:31 | 43.38088 | 17.90033 | 37079 ft | 446 kts | 155° |
| 2026-05-07 16:32 | 43.32781 | 17.94472 | 37081 ft | 446 kts | 155° |
| 2026-05-07 16:32 | 43.27482 | 17.98906 | 37085 ft | 446 kts | 155° |
| 2026-05-07 16:33 | 43.22175 | 18.03326 | 37081 ft | 446 kts | 155° |
| 2026-05-07 16:33 | 43.16873 | 18.07726 | 37077 ft | 445 kts | 155° |
| 2026-05-07 16:34 | 43.11554 | 18.12129 | 37085 ft | 448 kts | 155° |
| 2026-05-07 16:34 | 43.06215 | 18.16548 | 37093 ft | 448 kts | 156° |
| 2026-05-07 16:35 | 43.00879 | 18.20948 | 37093 ft | 448 kts | 156° |
| 2026-05-07 16:35 | 42.95291 | 18.24473 | 37099 ft | 439 kts | 166° |
| 2026-05-07 16:36 | 42.89618 | 18.27501 | 37080 ft | 441 kts | 166° |
| 2026-05-07 16:36 | 42.83916 | 18.30608 | 37086 ft | 441 kts | 166° |
| 2026-05-07 16:37 | 42.78616 | 18.33516 | 37091 ft | 441 kts | 165° |
| 2026-05-07 16:37 | 42.72922 | 18.36639 | 37071 ft | 441 kts | 166° |
| 2026-05-07 16:38 | 42.67199 | 18.39770 | 37086 ft | 444 kts | 166° |
| 2026-05-07 16:38 | 42.61461 | 18.42901 | 37073 ft | 445 kts | 166° |
| 2026-05-07 16:39 | 42.55717 | 18.46030 | 37086 ft | 445 kts | 166° |
| 2026-05-07 16:39 | 42.49962 | 18.49161 | 37056 ft | 447 kts | 166° |
| 2026-05-07 16:40 | 42.44159 | 18.52310 | 37077 ft | 449 kts | 166° |
| 2026-05-07 16:40 | 42.38370 | 18.55447 | 37081 ft | 449 kts | 166° |